METAR Formatted Surface Weather Observation
Issued by NWS

Home | Current Version | Previous Version | Text Only | Print | Product List | Glossary On
Versions: 1 2
000
SPZS31 NSTU 300320
MTRSPP
SPECI NSTU 300315Z 10012KT 1/2SM +SHRA OVC013 25/24 A2989=


USA.gov is the U.S. government's official web portal to all federal, state and local government web resources and services.